Time;durP1;ratioP1;P1;durP2;ratioP2;P2;SDS_P1;SDS_P2;PMS_P1;PMS_P2;Temp;Humidity;BMP_temperature;BMP_pressure;BME280_temperature;BME280_humidity;BME280_pressure;Samples;Min_cycle;Max_cycle;Signal;HPM_P1;HPM_P2
2024/04/27 00:01:33;;;;;;;;;;;;;;;;;;5345520;26;19930;-71
2024/04/27 00:04:03;;;;;;;;;;;;;;;;;;5350172;26;19929;-72
2024/04/27 00:06:32;;;;;;;;;;;;;;;;;;5346021;26;19987;-72
2024/04/27 00:09:00;;;;;;;;;;;;;;;;;;5345624;26;20007;-72
2024/04/27 00:11:29;;;;;;;;;;;;;;;;;;5345328;26;19934;-70
2024/04/27 00:13:58;;;;;;;;;;;;;;;;;;5346387;26;19936;-71
2024/04/27 00:16:28;;;;;;;;;;;;;;;;;;5346663;26;19941;-71
2024/04/27 00:18:56;;;;;;;;;;;;;;;;;;5345852;26;19937;-72
2024/04/27 00:21:25;;;;;;;;;;;;;;;;;;5339242;26;19999;-72
2024/04/27 00:23:56;;;;;;;;;;;;;;;;;;5345041;26;19936;-73
2024/04/27 00:26:25;;;;;;;;;;;;;;;;;;5345834;26;19995;-73
2024/04/27 00:28:53;;;;;;;;;;;;;;;;;;5345258;26;20365;-71
2024/04/27 00:31:25;;;;;;;;;;;;;;;;;;5345148;26;19930;-72
2024/04/27 00:33:54;;;;;;;;;;;;;;;;;;5344696;26;19942;-72
2024/04/27 00:36:23;;;;;;;;;;;;;;;;;;5345525;26;19941;-73
2024/04/27 00:38:48;;;;;;;;;;;;;;;;;;5345411;26;20408;-73
2024/04/27 00:41:17;;;;;;;;;;;;;;;;;;5345219;26;19930;-73
2024/04/27 00:43:46;;;;;;;;;;;;;;;;;;5344606;26;19937;-71
2024/04/27 00:46:14;;;;;;;;;;;;;;;;;;5345298;26;19936;-73
2024/04/27 00:48:43;;;;;;;;;;;;;;;;;;5355062;26;19930;-73
2024/04/27 00:51:11;;;;;;;;;;;;;;;;;;5339023;26;19930;-73
2024/04/27 00:53:40;;;;;;;;;;;;;;;;;;5346231;26;19937;-73
2024/04/27 00:56:08;;;;;;;;;;;;;;;;;;5344794;26;20268;-72
2024/04/27 00:58:37;;;;;;;;;;;;;;;;;;5351364;26;19930;-73
2024/04/27 01:01:05;;;;;;;;;;;;;;;;;;5350792;26;19930;-72
2024/04/27 01:03:34;;;;;;;;;;;;;;;;;;5347709;26;20536;-72
2024/04/27 01:06:02;;;;;;;;;;;;;;;;;;5344559;26;19930;-72
2024/04/27 01:08:33;;;;;;;;;;;;;;;;;;5344624;26;20021;-71
2024/04/27 01:11:01;;;;;;;;;;;;;;;;;;5347244;26;19938;-73
2024/04/27 01:13:30;;;;;;;;;;;;;;;;;;5344378;26;19937;-73
2024/04/27 01:15:58;;;;;;;;;;;;;;;;;;5345035;26;19940;-72
2024/04/27 01:18:27;;;;;;;;;;;;;;;;;;5337380;26;20364;-73
2024/04/27 01:20:55;;;;;;;;;;;;;;;;;;5347275;26;19996;-73
2024/04/27 01:23:24;;;;;;;;;;;;;;;;;;5352976;26;19930;-73
2024/04/27 01:25:52;;;;;;;;;;;;;;;;;;5347562;26;19930;-72
2024/04/27 01:28:21;;;;;;;;;;;;;;;;;;5351630;26;20013;-73
2024/04/27 01:30:49;;;;;;;;;;;;;;;;;;5350042;26;19930;-73
2024/04/27 01:33:18;;;;;;;;;;;;;;;;;;5347214;26;19930;-73
2024/04/27 01:35:48;;;;;;;;;;;;;;;;;;5347270;26;19937;-71
2024/04/27 01:38:16;;;;;;;;;;;;;;;;;;5348247;26;19929;-73
2024/04/27 01:40:45;;;;;;;;;;;;;;;;;;5356934;26;20377;-71
2024/04/27 01:43:13;;;;;;;;;;;;;;;;;;5348943;26;19934;-72
2024/04/27 01:45:42;;;;;;;;;;;;;;;;;;5347314;26;19930;-72
2024/04/27 01:48:10;;;;;;;;;;;;;;;;;;5347308;26;19934;-73
2024/04/27 01:50:39;;;;;;;;;;;;;;;;;;5349883;26;19984;-73
2024/04/27 01:53:07;;;;;;;;;;;;;;;;;;5340455;26;20372;-72
2024/04/27 01:55:36;;;;;;;;;;;;;;;;;;5347380;26;19930;-72
2024/04/27 01:58:04;;;;;;;;;;;;;;;;;;5348927;26;19954;-72
2024/04/27 02:00:33;;;;;;;;;;;;;;;;;;5353690;26;19937;-73
2024/04/27 02:03:01;;;;;;;;;;;;;;;;;;5349960;26;20268;-72
2024/04/27 02:05:30;;;;;;;;;;;;;;;;;;5352227;26;19930;-73
2024/04/27 02:07:58;;;;;;;;;;;;;;;;;;5343622;26;19932;-73
2024/04/27 02:10:27;;;;;;;;;;;;;;;;;;5349805;26;20037;-73
2024/04/27 02:12:56;;;;;;;;;;;;;;;;;;5346941;26;19930;-72
2024/04/27 02:15:35;;;;;;;;;;;;;;;;;;5346912;26;20380;-72
2024/04/27 02:21:03;;;;;;;;;;;;;;;;;;5275588;27;19935;-73
2024/04/27 02:23:32;;;;;;;;;;;;;;;;;;5274891;27;20021;-72
2024/04/27 02:25:58;;;;;;;;;;;;;;;;;;5306989;26;19929;-73
2024/04/27 02:28:26;;;;;;;;;;;;;;;;;;5346642;26;19930;-73
2024/04/27 02:30:55;;;;;;;;;;;;;;;;;;5347579;26;19944;-73
2024/04/27 02:33:23;;;;;;;;;;;;;;;;;;5346605;26;20371;-72
2024/04/27 02:35:52;;;;;;;;;;;;;;;;;;5346640;26;19936;-73
2024/04/27 02:38:20;;;;;;;;;;;;;;;;;;5364915;26;20002;-72
2024/04/27 02:40:49;;;;;;;;;;;;;;;;;;5354326;26;20369;-73
2024/04/27 02:43:17;;;;;;;;;;;;;;;;;;5346856;26;19930;-73
2024/04/27 02:45:46;;;;;;;;;;;;;;;;;;5346638;26;19930;-71
2024/04/27 02:48:14;;;;;;;;;;;;;;;;;;5349783;26;19995;-73
2024/04/27 02:50:43;;;;;;;;;;;;;;;;;;5355294;26;19934;-74
2024/04/27 02:53:13;;;;;;;;;;;;;;;;;;5349424;26;20273;-73
2024/04/27 02:55:42;;;;;;;;;;;;;;;;;;5347604;26;20745;-73
2024/04/27 02:58:10;;;;;;;;;;;;;;;;;;5348260;26;19936;-73
2024/04/27 03:00:39;;;;;;;;;;;;;;;;;;5346972;26;19930;-73
2024/04/27 03:03:07;;;;;;;;;;;;;;;;;;5346079;26;19936;-73
2024/04/27 03:05:36;;;;;;;;;;;;;;;;;;5348126;26;19941;-73
2024/04/27 03:08:04;;;;;;;;;;;;;;;;;;5348660;26;19936;-72
2024/04/27 03:10:33;;;;;;;;;;;;;;;;;;5349260;26;19936;-72
2024/04/27 03:13:01;;;;;;;;;;;;;;;;;;5344723;26;20008;-74
2024/04/27 03:15:30;;;;;;;;;;;;;;;;;;5346980;26;19934;-74
2024/04/27 03:17:58;;;;;;;;;;;;;;;;;;5353591;26;20280;-72
2024/04/27 03:20:29;;;;;;;;;;;;;;;;;;5342727;26;19934;-73
2024/04/27 03:22:59;;;;;;;;;;;;;;;;;;5350178;26;19940;-69
2024/04/27 03:25:27;;;;;;;;;;;;;;;;;;5348357;26;19958;-72
2024/04/27 03:27:56;;;;;;;;;;;;;;;;;;5349653;26;19937;-74
2024/04/27 03:30:24;;;;;;;;;;;;;;;;;;5348995;26;19930;-73
2024/04/27 03:32:53;;;;;;;;;;;;;;;;;;5346475;26;20395;-71
2024/04/27 03:35:21;;;;;;;;;;;;;;;;;;5347063;26;19970;-73
2024/04/27 03:37:50;;;;;;;;;;;;;;;;;;5349846;26;20398;-73
2024/04/27 03:40:18;;;;;;;;;;;;;;;;;;5352105;26;19995;-73
2024/04/27 03:42:47;;;;;;;;;;;;;;;;;;5345905;26;19930;-73
2024/04/27 03:45:16;;;;;;;;;;;;;;;;;;5349280;26;19930;-72
2024/04/27 03:47:45;;;;;;;;;;;;;;;;;;5345583;26;19937;-73
2024/04/27 03:50:13;;;;;;;;;;;;;;;;;;5339296;26;19930;-71
2024/04/27 03:52:42;;;;;;;;;;;;;;;;;;5341435;26;19930;-72
2024/04/27 03:55:08;;;;;;;;;;;;;;;;;;5345593;26;20305;-72
2024/04/27 03:57:36;;;;;;;;;;;;;;;;;;5352972;26;19977;-73
2024/04/27 04:00:05;;;;;;;;;;;;;;;;;;5346101;26;19930;-73
2024/04/27 04:02:33;;;;;;;;;;;;;;;;;;5345540;26;19996;-73
2024/04/27 04:05:02;;;;;;;;;;;;;;;;;;5350069;26;19941;-73
2024/04/27 04:07:31;;;;;;;;;;;;;;;;;;5361171;26;19930;-72
2024/04/27 04:09:59;;;;;;;;;;;;;;;;;;5345554;26;19930;-71
2024/04/27 04:12:28;;;;;;;;;;;;;;;;;;5345515;26;19936;-72
2024/04/27 04:14:56;;;;;;;;;;;;;;;;;;5345535;26;19940;-73
2024/04/27 04:17:25;;;;;;;;;;;;;;;;;;5352745;26;19930;-73
2024/04/27 04:19:53;;;;;;;;;;;;;;;;;;5345344;26;19930;-73
2024/04/27 04:22:22;;;;;;;;;;;;;;;;;;5345608;26;20344;-72
2024/04/27 04:24:51;;;;;;;;;;;;;;;;;;5342845;26;19934;-73
2024/04/27 04:27:20;;;;;;;;;;;;;;;;;;5342692;26;19930;-73
2024/04/27 04:29:48;;;;;;;;;;;;;;;;;;5347466;26;19930;-72
2024/04/27 04:32:18;;;;;;;;;;;;;;;;;;5345175;26;19934;-73
2024/04/27 04:34:46;;;;;;;;;;;;;;;;;;5345722;26;19942;-72
2024/04/27 04:37:15;;;;;;;;;;;;;;;;;;5352186;26;20264;-71
2024/04/27 04:39:43;;;;;;;;;;;;;;;;;;5347406;26;20007;-72
2024/04/27 04:42:12;;;;;;;;;;;;;;;;;;5357677;26;19940;-73
2024/04/27 04:44:40;;;;;;;;;;;;;;;;;;5344629;26;20038;-71
2024/04/27 04:47:09;;;;;;;;;;;;;;;;;;5347423;26;19996;-73
2024/04/27 04:49:38;;;;;;;;;;;;;;;;;;5344768;26;19930;-72
2024/04/27 04:52:06;;;;;;;;;;;;;;;;;;5346475;26;19930;-73
2024/04/27 04:54:35;;;;;;;;;;;;;;;;;;5349517;26;20003;-72
2024/04/27 04:57:03;;;;;;;;;;;;;;;;;;5348061;26;19930;-72
2024/04/27 04:59:32;;;;;;;;;;;;;;;;;;5341996;26;20357;-73
2024/04/27 05:02:00;;;;;;;;;;;;;;;;;;5347849;26;19930;-71
2024/04/27 05:04:29;;;;;;;;;;;;;;;;;;5342341;26;19930;-72
2024/04/27 05:06:58;;;;;;;;;;;;;;;;;;5350763;26;19938;-72
2024/04/27 05:09:26;;;;;;;;;;;;;;;;;;5348026;26;19930;-72
2024/04/27 05:11:55;;;;;;;;;;;;;;;;;;5348163;26;19962;-73
2024/04/27 05:14:23;;;;;;;;;;;;;;;;;;5349365;26;20353;-72
2024/04/27 05:16:52;;;;;;;;;;;;;;;;;;5349109;26;19930;-73
2024/04/27 05:19:20;;;;;;;;;;;;;;;;;;5347821;26;19930;-73
2024/04/27 05:21:49;;;;;;;;;;;;;;;;;;5347554;26;20568;-72
2024/04/27 05:24:17;;;;;;;;;;;;;;;;;;5347277;26;19930;-72
2024/04/27 05:26:46;;;;;;;;;;;;;;;;;;5347955;26;19930;-73
2024/04/27 05:29:14;;;;;;;;;;;;;;;;;;5347725;26;20376;-73
2024/04/27 05:31:43;;;;;;;;;;;;;;;;;;5353060;26;19934;-73
2024/04/27 05:34:11;;;;;;;;;;;;;;;;;;5347410;26;19930;-71
2024/04/27 05:36:40;;;;;;;;;;;;;;;;;;5350153;26;20396;-73
2024/04/27 05:39:08;;;;;;;;;;;;;;;;;;5353222;26;19934;-72
2024/04/27 05:41:37;;;;;;;;;;;;;;;;;;5347575;26;20396;-72
2024/04/27 05:44:05;;;;;;;;;;;;;;;;;;5347343;26;19958;-71
2024/04/27 05:46:34;;;;;;;;;;;;;;;;;;5357076;26;20326;-73
2024/04/27 05:49:02;;;;;;;;;;;;;;;;;;5350269;26;19930;-73
2024/04/27 05:51:31;;;;;;;;;;;;;;;;;;5347479;26;19929;-73
2024/04/27 05:53:59;;;;;;;;;;;;;;;;;;5347296;26;19930;-71
2024/04/27 05:56:28;;;;;;;;;;;;;;;;;;5354564;26;19941;-72
2024/04/27 05:58:56;;;;;;;;;;;;;;;;;;5351827;26;19999;-73
2024/04/27 06:01:25;;;;;;;;;;;;;;;;;;5347779;26;20265;-72
2024/04/27 06:03:53;;;;;;;;;;;;;;;;;;5349161;26;19930;-73
2024/04/27 06:06:22;;;;;;;;;;;;;;;;;;5346665;26;19936;-73
2024/04/27 06:08:50;;;;;;;;;;;;;;;;;;5353878;26;20396;-73
2024/04/27 06:11:19;;;;;;;;;;;;;;;;;;5348555;26;19930;-73
2024/04/27 06:13:47;;;;;;;;;;;;;;;;;;5348407;26;19930;-73
2024/04/27 06:16:16;;;;;;;;;;;;;;;;;;5353879;26;20256;-73
2024/04/27 06:18:45;;;;;;;;;;;;;;;;;;5347157;26;19945;-74
2024/04/27 06:21:13;;;;;;;;;;;;;;;;;;5347673;26;19930;-73
2024/04/27 06:23:42;;;;;;;;;;;;;;;;;;5351586;26;19933;-72
2024/04/27 06:26:10;;;;;;;;;;;;;;;;;;5350328;26;19937;-71
2024/04/27 06:28:39;;;;;;;;;;;;;;;;;;5348990;26;20020;-72
2024/04/27 06:31:07;;;;;;;;;;;;;;;;;;5347027;26;19930;-73
2024/04/27 06:33:36;;;;;;;;;;;;;;;;;;5350830;26;20326;-73
2024/04/27 06:36:04;;;;;;;;;;;;;;;;;;5354799;26;19930;-71
2024/04/27 06:38:33;;;;;;;;;;;;;;;;;;5346317;26;19930;-72
2024/04/27 06:41:01;;;;;;;;;;;;;;;;;;5350957;26;19930;-73
2024/04/27 06:43:30;;;;;;;;;;;;;;;;;;5352280;26;19930;-73
2024/04/27 06:45:58;;;;;;;;;;;;;;;;;;5346522;26;19996;-72
2024/04/27 06:48:30;;;;;;;;;;;;;;;;;;5349695;26;19930;-71
2024/04/27 06:50:58;;;;;;;;;;;;;;;;;;5346765;26;19936;-72
2024/04/27 06:53:27;;;;;;;;;;;;;;;;;;5347016;26;19937;-72
2024/04/27 06:55:55;;;;;;;;;;;;;;;;;;5355102;26;20382;-72
2024/04/27 06:58:24;;;;;;;;;;;;;;;;;;5352465;26;19930;-72
2024/04/27 07:00:52;;;;;;;;;;;;;;;;;;5346303;26;19937;-72
2024/04/27 07:03:21;;;;;;;;;;;;;;;;;;5345988;26;20285;-72
2024/04/27 07:05:49;;;;;;;;;;;;;;;;;;5347666;26;19936;-72
2024/04/27 07:08:18;;;;;;;;;;;;;;;;;;5343781;26;20602;-73
2024/04/27 07:10:47;;;;;;;;;;;;;;;;;;5344692;26;19941;-76
2024/04/27 07:13:15;;;;;;;;;;;;;;;;;;5346195;26;19999;-71
2024/04/27 07:15:45;;;;;;;;;;;;;;;;;;5353745;26;19936;-71
2024/04/27 07:18:13;;;;;;;;;;;;;;;;;;5356541;26;19929;-72
2024/04/27 07:20:42;;;;;;;;;;;;;;;;;;5351519;26;20429;-72
2024/04/27 07:23:11;;;;;;;;;;;;;;;;;;5346268;26;19942;-72
2024/04/27 07:25:39;;;;;;;;;;;;;;;;;;5346931;26;19934;-72
2024/04/27 07:28:08;;;;;;;;;;;;;;;;;;5346909;26;19934;-72
2024/04/27 07:30:36;;;;;;;;;;;;;;;;;;5347346;26;19934;-72
2024/04/27 07:33:05;;;;;;;;;;;;;;;;;;5346202;26;19930;-73
2024/04/27 07:35:33;;;;;;;;;;;;;;;;;;5353214;26;19937;-71
2024/04/27 07:38:02;;;;;;;;;;;;;;;;;;5348351;26;19974;-73
2024/04/27 07:40:30;;;;;;;;;;;;;;;;;;5339330;26;20021;-72
2024/04/27 07:42:59;;;;;;;;;;;;;;;;;;5348674;26;20280;-72
2024/04/27 07:45:27;;;;;;;;;;;;;;;;;;5345935;26;19936;-73
2024/04/27 07:47:56;;;;;;;;;;;;;;;;;;5345782;26;19930;-72
2024/04/27 07:50:24;;;;;;;;;;;;;;;;;;5347938;26;19934;-72
2024/04/27 07:52:53;;;;;;;;;;;;;;;;;;5345662;26;19930;-71
2024/04/27 07:55:21;;;;;;;;;;;;;;;;;;5351610;26;19930;-72
2024/04/27 07:57:52;;;;;;;;;;;;;;;;;;5345546;26;19930;-70
2024/04/27 08:00:20;;;;;;;;;;;;;;;;;;5349458;26;19930;-70
2024/04/27 08:02:51;;;;;;;;;;;;;;;;;;5345655;26;19936;-68
2024/04/27 08:05:20;;;;;;;;;;;;;;;;;;5348274;26;20033;-67
2024/04/27 08:07:50;;;;;;;;;;;;;;;;;;5348170;26;19930;-68
2024/04/27 08:10:19;;;;;;;;;;;;;;;;;;5340019;26;19937;-69
2024/04/27 08:12:47;;;;;;;;;;;;;;;;;;5345437;26;19940;-69
2024/04/27 08:15:16;;;;;;;;;;;;;;;;;;5345005;26;19958;-69
2024/04/27 08:17:44;;;;;;;;;;;;;;;;;;5348097;26;19941;-67
2024/04/27 08:20:13;;;;;;;;;;;;;;;;;;5345257;26;19930;-68
2024/04/27 08:22:41;;;;;;;;;;;;;;;;;;5344691;26;19930;-66
2024/04/27 08:25:10;;;;;;;;;;;;;;;;;;5344488;26;19930;-66
2024/04/27 08:27:39;;;;;;;;;;;;;;;;;;5344429;26;20327;-67
2024/04/27 08:30:08;;;;;;;;;;;;;;;;;;5343780;26;19937;-67
2024/04/27 08:32:37;;;;;;;;;;;;;;;;;;5344704;26;20003;-71
2024/04/27 08:35:05;;;;;;;;;;;;;;;;;;5353618;26;19930;-73
2024/04/27 08:37:34;;;;;;;;;;;;;;;;;;5344683;26;19930;-69
2024/04/27 08:40:03;;;;;;;;;;;;;;;;;;5344234;26;19930;-69
2024/04/27 08:42:31;;;;;;;;;;;;;;;;;;5344613;26;20004;-71
2024/04/27 08:45:00;;;;;;;;;;;;;;;;;;5343246;26;19930;-68
2024/04/27 08:47:28;;;;;;;;;;;;;;;;;;5350517;26;20010;-68
2024/04/27 08:49:57;;;;;;;;;;;;;;;;;;5342415;26;19983;-69
2024/04/27 08:52:25;;;;;;;;;;;;;;;;;;5345228;26;20006;-69
2024/04/27 08:54:54;;;;;;;;;;;;;;;;;;5349900;26;20299;-68
2024/04/27 08:57:23;;;;;;;;;;;;;;;;;;5344416;26;20018;-67
2024/04/27 08:59:51;;;;;;;;;;;;;;;;;;5346762;26;19938;-67
2024/04/27 09:02:20;;;;;;;;;;;;;;;;;;5349862;26;20006;-67
2024/04/27 09:04:49;;;;;;;;;;;;;;;;;;5343872;26;20393;-67
2024/04/27 09:07:17;;;;;;;;;;;;;;;;;;5348926;26;19930;-68
2024/04/27 09:09:46;;;;;;;;;;;;;;;;;;5344198;26;19930;-67
2024/04/27 09:12:14;;;;;;;;;;;;;;;;;;5338202;26;19945;-66
2024/04/27 09:14:45;;;;;;;;;;;;;;;;;;5345064;26;20370;-66
2024/04/27 09:17:13;;;;;;;;;;;;;;;;;;5339164;26;19930;-67
2024/04/27 09:19:42;;;;;;;;;;;;;;;;;;5344218;26;19936;-67
2024/04/27 09:22:11;;;;;;;;;;;;;;;;;;5344102;26;20008;-66
2024/04/27 09:24:39;;;;;;;;;;;;;;;;;;5343879;26;19936;-67
2024/04/27 09:27:08;;;;;;;;;;;;;;;;;;5350591;26;20379;-67
2024/04/27 09:29:38;;;;;;;;;;;;;;;;;;5344131;26;19937;-67
2024/04/27 09:32:07;;;;;;;;;;;;;;;;;;5344225;26;19941;-67
2024/04/27 09:34:35;;;;;;;;;;;;;;;;;;5350504;26;19936;-66
2024/04/27 09:37:04;;;;;;;;;;;;;;;;;;5348885;26;19930;-66
2024/04/27 09:39:32;;;;;;;;;;;;;;;;;;5343715;26;20374;-68
2024/04/27 09:42:01;;;;;;;;;;;;;;;;;;5349369;26;19936;-68
2024/04/27 09:44:29;;;;;;;;;;;;;;;;;;5346857;26;19930;-67
2024/04/27 09:46:58;;;;;;;;;;;;;;;;;;5348800;26;19930;-66
2024/04/27 09:49:26;;;;;;;;;;;;;;;;;;5341236;26;19937;-68
2024/04/27 09:51:55;;;;;;;;;;;;;;;;;;5347578;26;19930;-71
2024/04/27 09:54:23;;;;;;;;;;;;;;;;;;5350537;26;19997;-70
2024/04/27 09:56:52;;;;;;;;;;;;;;;;;;5361301;26;19937;-73
2024/04/27 09:59:21;;;;;;;;;;;;;;;;;;5352271;26;20368;-71
2024/04/27 10:01:49;;;;;;;;;;;;;;;;;;5352645;26;19930;-74
2024/04/27 10:04:18;;;;;;;;;;;;;;;;;;5365716;26;19929;-72
2024/04/27 10:06:57;;;;;;;;;;;;;;;;;;5355917;26;20380;-71
2024/04/27 10:09:25;;;;;;;;;;;;;;;;;;5338586;26;19937;-66
2024/04/27 10:11:54;;;;;;;;;;;;;;;;;;5359522;26;20364;-67
2024/04/27 10:14:22;;;;;;;;;;;;;;;;;;5360757;26;20048;-68
2024/04/27 10:16:51;;;;;;;;;;;;;;;;;;5358374;26;19977;-68
2024/04/27 10:19:19;;;;;;;;;;;;;;;;;;5351360;26;19941;-68
2024/04/27 10:21:48;;;;;;;;;;;;;;;;;;5344893;26;19999;-68
2024/04/27 10:24:16;;;;;;;;;;;;;;;;;;5351432;26;19936;-64
2024/04/27 10:26:45;;;;;;;;;;;;;;;;;;5347495;26;19937;-64
2024/04/27 10:29:14;;;;;;;;;;;;;;;;;;5349377;26;19938;-71
2024/04/27 10:31:42;;;;;;;;;;;;;;;;;;5347070;26;19930;-60
2024/04/27 10:34:11;;;;;;;;;;;;;;;;;;5350194;26;19930;-63
2024/04/27 10:36:39;;;;;;;;;;;;;;;;;;5338849;26;19974;-67
2024/04/27 10:39:10;;;;;;;;;;;;;;;;;;5344099;26;19930;-68
2024/04/27 10:41:39;;;;;;;;;;;;;;;;;;5350364;26;19966;-67
2024/04/27 10:44:09;;;;;;;;;;;;;;;;;;5372807;21;19965;-68
2024/04/27 10:46:39;;;;;;;;;;;;;;;;;;5398118;26;20028;-68
2024/04/27 10:49:07;;;;;;;;;;;;;;;;;;5404804;26;19949;-68
2024/04/27 10:51:38;;;;;;;;;;;;;;;;;;5395818;26;20470;-68
2024/04/27 10:54:07;;;;;;;;;;;;;;;;;;5394809;26;19934;-66
2024/04/27 10:56:35;;;;;;;;;;;;;;;;;;5389316;26;19939;-66
2024/04/27 10:59:04;;;;;;;;;;;;;;;;;;5396154;26;19935;-65
2024/04/27 11:01:32;;;;;;;;;;;;;;;;;;5394086;26;20327;-65
2024/04/27 11:04:01;;;;;;;;;;;;;;;;;;5392751;26;19929;-64
2024/04/27 11:06:29;;;;;;;;;;;;;;;;;;5397637;26;19929;-65
2024/04/27 11:08:58;;;;;;;;;;;;;;;;;;5400380;26;20273;-65
2024/04/27 11:11:26;;;;;;;;;;;;;;;;;;5399842;26;19929;-66
2024/04/27 11:13:55;;;;;;;;;;;;;;;;;;5394689;26;20353;-66
2024/04/27 11:16:23;;;;;;;;;;;;;;;;;;5395593;26;19941;-65
2024/04/27 11:18:52;;;;;;;;;;;;;;;;;;5391075;26;20251;-64
2024/04/27 11:21:21;;;;;;;;;;;;;;;;;;5398180;26;19941;-65
2024/04/27 11:23:49;;;;;;;;;;;;;;;;;;5397679;26;20016;-66
2024/04/27 11:26:18;;;;;;;;;;;;;;;;;;5399895;26;20368;-66
2024/04/27 11:28:46;;;;;;;;;;;;;;;;;;5397927;26;19930;-69
2024/04/27 11:31:15;;;;;;;;;;;;;;;;;;5399342;26;20008;-70
2024/04/27 11:33:43;;;;;;;;;;;;;;;;;;5387272;26;19929;-68
2024/04/27 11:36:12;;;;;;;;;;;;;;;;;;5385742;26;20334;-67
2024/04/27 11:38:40;;;;;;;;;;;;;;;;;;5396672;26;19929;-66
2024/04/27 11:41:09;;;;;;;;;;;;;;;;;;5395337;26;19980;-66
2024/04/27 11:43:38;;;;;;;;;;;;;;;;;;5399467;26;19940;-66
2024/04/27 11:46:06;;;;;;;;;;;;;;;;;;5396699;26;19945;-66
2024/04/27 11:48:36;;;;;;;;;;;;;;;;;;5402003;26;19933;-66
2024/04/27 11:51:04;;;;;;;;;;;;;;;;;;5398106;26;20318;-66
2024/04/27 11:53:33;;;;;;;;;;;;;;;;;;5386925;26;19946;-66
2024/04/27 11:56:01;;;;;;;;;;;;;;;;;;5393170;26;19998;-66
2024/04/27 11:58:30;;;;;;;;;;;;;;;;;;5390283;26;19997;-68
2024/04/27 12:00:58;;;;;;;;;;;;;;;;;;5394805;26;19929;-66
2024/04/27 12:03:27;;;;;;;;;;;;;;;;;;5399038;26;20273;-65
2024/04/27 12:05:56;;;;;;;;;;;;;;;;;;5389312;26;19941;-66
2024/04/27 12:08:24;;;;;;;;;;;;;;;;;;5386750;26;19993;-67
2024/04/27 12:10:53;;;;;;;;;;;;;;;;;;5398305;26;19929;-68
2024/04/27 12:13:21;;;;;;;;;;;;;;;;;;5393550;26;20024;-67
2024/04/27 12:15:50;;;;;;;;;;;;;;;;;;5398442;26;19936;-65
2024/04/27 12:18:18;;;;;;;;;;;;;;;;;;5393991;26;20024;-66
2024/04/27 12:20:47;;;;;;;;;;;;;;;;;;5392311;26;20060;-68
2024/04/27 12:23:16;;;;;;;;;;;;;;;;;;5393006;26;20345;-69
2024/04/27 12:25:46;;;;;;;;;;;;;;;;;;5396503;26;20238;-69
2024/04/27 12:28:15;;;;;;;;;;;;;;;;;;5392960;26;20003;-67
2024/04/27 12:30:43;;;;;;;;;;;;;;;;;;5393709;26;19929;-69
2024/04/27 12:33:12;;;;;;;;;;;;;;;;;;5385913;26;19936;-65
2024/04/27 12:35:40;;;;;;;;;;;;;;;;;;5386506;26;19952;-66
2024/04/27 12:38:09;;;;;;;;;;;;;;;;;;5388735;26;20696;-66
2024/04/27 12:40:38;;;;;;;;;;;;;;;;;;5394287;26;19933;-65
2024/04/27 12:43:06;;;;;;;;;;;;;;;;;;5396092;26;19933;-68
2024/04/27 12:45:35;;;;;;;;;;;;;;;;;;5397950;26;20340;-67
2024/04/27 12:48:03;;;;;;;;;;;;;;;;;;5391971;26;19935;-67
2024/04/27 12:50:32;;;;;;;;;;;;;;;;;;5397275;26;19929;-67
2024/04/27 12:53:00;;;;;;;;;;;;;;;;;;5385700;26;19929;-67
2024/04/27 12:55:29;;;;;;;;;;;;;;;;;;5396812;26;19953;-67
2024/04/27 12:57:57;;;;;;;;;;;;;;;;;;5382317;26;19930;-67
2024/04/27 13:00:26;;;;;;;;;;;;;;;;;;5396929;26;19941;-69
2024/04/27 13:02:54;;;;;;;;;;;;;;;;;;5394548;26;19930;-69
2024/04/27 13:05:23;;;;;;;;;;;;;;;;;;5390512;26;19941;-66
2024/04/27 13:07:52;;;;;;;;;;;;;;;;;;5394160;26;19934;-66
2024/04/27 13:10:20;;;;;;;;;;;;;;;;;;5390728;26;19941;-66
2024/04/27 13:12:49;;;;;;;;;;;;;;;;;;5379813;26;20360;-66
2024/04/27 13:15:17;;;;;;;;;;;;;;;;;;5377297;26;19962;-66
2024/04/27 13:17:46;;;;;;;;;;;;;;;;;;5382186;26;20006;-66
2024/04/27 13:20:14;;;;;;;;;;;;;;;;;;5394304;26;20367;-66
2024/04/27 13:22:43;;;;;;;;;;;;;;;;;;5392666;26;19953;-66
2024/04/27 13:25:11;;;;;;;;;;;;;;;;;;5403572;26;20476;-66
2024/04/27 13:27:40;;;;;;;;;;;;;;;;;;5399696;26;19933;-66
2024/04/27 13:30:08;;;;;;;;;;;;;;;;;;5400147;26;20372;-66
2024/04/27 13:32:37;;;;;;;;;;;;;;;;;;5388375;26;19933;-66
2024/04/27 13:35:06;;;;;;;;;;;;;;;;;;5394969;26;19929;-66
2024/04/27 13:37:35;;;;;;;;;;;;;;;;;;5392803;26;19930;-65
2024/04/27 13:40:04;;;;;;;;;;;;;;;;;;5397544;26;20020;-70
2024/04/27 13:42:32;;;;;;;;;;;;;;;;;;5379825;26;19936;-66
2024/04/27 13:45:01;;;;;;;;;;;;;;;;;;5391507;26;19930;-67
2024/04/27 13:47:29;;;;;;;;;;;;;;;;;;5400980;26;19928;-68
2024/04/27 13:49:58;;;;;;;;;;;;;;;;;;5396279;26;19938;-69
2024/04/27 13:52:26;;;;;;;;;;;;;;;;;;5395178;26;19994;-70
2024/04/27 13:54:55;;;;;;;;;;;;;;;;;;5387938;26;20387;-69
2024/04/27 13:57:23;;;;;;;;;;;;;;;;;;5387546;26;19965;-67
2024/04/27 13:59:52;;;;;;;;;;;;;;;;;;5388976;26;20457;-68
2024/04/27 14:02:21;;;;;;;;;;;;;;;;;;5402259;26;20016;-70
2024/04/27 14:04:49;;;;;;;;;;;;;;;;;;5397456;26;19929;-71
2024/04/27 14:07:18;;;;;;;;;;;;;;;;;;5394610;26;19929;-69
2024/04/27 14:09:46;;;;;;;;;;;;;;;;;;5395986;26;20355;-69
2024/04/27 14:12:15;;;;;;;;;;;;;;;;;;5395624;26;19954;-69
2024/04/27 14:14:43;;;;;;;;;;;;;;;;;;5401657;26;20356;-66
2024/04/27 14:17:12;;;;;;;;;;;;;;;;;;5393231;26;19941;-69
2024/04/27 14:19:40;;;;;;;;;;;;;;;;;;5393471;26;19994;-69
2024/04/27 14:22:09;;;;;;;;;;;;;;;;;;5396257;26;19941;-69
2024/04/27 14:24:37;;;;;;;;;;;;;;;;;;5399615;26;19965;-66
2024/04/27 14:27:06;;;;;;;;;;;;;;;;;;5394623;26;19933;-66
2024/04/27 14:29:35;;;;;;;;;;;;;;;;;;5399039;26;19983;-67
2024/04/27 14:32:04;;;;;;;;;;;;;;;;;;5389341;26;19929;-65
2024/04/27 14:34:32;;;;;;;;;;;;;;;;;;5388091;26;19930;-65
2024/04/27 14:37:01;;;;;;;;;;;;;;;;;;5384999;26;19929;-65
2024/04/27 14:39:29;;;;;;;;;;;;;;;;;;5396068;26;19929;-65
2024/04/27 14:41:58;;;;;;;;;;;;;;;;;;5390218;26;19933;-71
2024/04/27 14:44:26;;;;;;;;;;;;;;;;;;5403069;26;19994;-68
2024/04/27 14:46:55;;;;;;;;;;;;;;;;;;5393790;26;19936;-65
2024/04/27 14:49:23;;;;;;;;;;;;;;;;;;5393999;26;19943;-64
2024/04/27 14:51:52;;;;;;;;;;;;;;;;;;5369844;26;19929;-64
2024/04/27 14:54:20;;;;;;;;;;;;;;;;;;5389194;26;20386;-71
2024/04/27 14:56:49;;;;;;;;;;;;;;;;;;5399472;26;19929;-69
2024/04/27 14:59:17;;;;;;;;;;;;;;;;;;5387102;26;19930;-69
2024/04/27 15:01:46;;;;;;;;;;;;;;;;;;5397905;26;20378;-65
2024/04/27 15:04:15;;;;;;;;;;;;;;;;;;5386608;26;19968;-65
2024/04/27 15:06:43;;;;;;;;;;;;;;;;;;5394523;26;19929;-65
2024/04/27 15:09:12;;;;;;;;;;;;;;;;;;5396302;26;19936;-65
2024/04/27 15:11:41;;;;;;;;;;;;;;;;;;5396689;26;19930;-70
2024/04/27 15:14:09;;;;;;;;;;;;;;;;;;5393597;26;20276;-67
2024/04/27 15:16:38;;;;;;;;;;;;;;;;;;5399211;26;19929;-66
2024/04/27 15:19:06;;;;;;;;;;;;;;;;;;5393638;26;19929;-70
2024/04/27 15:21:36;;;;;;;;;;;;;;;;;;5380425;26;20317;-66
2024/04/27 15:24:04;;;;;;;;;;;;;;;;;;5390152;26;19952;-66
2024/04/27 15:26:33;;;;;;;;;;;;;;;;;;5393789;26;19945;-68
2024/04/27 15:29:01;;;;;;;;;;;;;;;;;;5404469;26;20010;-62
2024/04/27 15:31:30;;;;;;;;;;;;;;;;;;5390485;26;19936;-64
2024/04/27 15:33:58;;;;;;;;;;;;;;;;;;5385462;26;19939;-65
2024/04/27 15:36:27;;;;;;;;;;;;;;;;;;5385484;26;19995;-68
2024/04/27 15:38:56;;;;;;;;;;;;;;;;;;5392169;26;19929;-64
2024/04/27 15:41:25;;;;;;;;;;;;;;;;;;5396559;26;19936;-65
2024/04/27 15:43:53;;;;;;;;;;;;;;;;;;5401369;26;20001;-63
2024/04/27 15:46:22;;;;;;;;;;;;;;;;;;5396522;26;20426;-63
2024/04/27 15:48:50;;;;;;;;;;;;;;;;;;5393552;26;20041;-63
2024/04/27 15:51:20;;;;;;;;;;;;;;;;;;5393386;26;19933;-63
2024/04/27 15:53:48;;;;;;;;;;;;;;;;;;5382146;26;19929;-63
2024/04/27 15:56:17;;;;;;;;;;;;;;;;;;5394130;26;19937;-63
2024/04/27 15:58:45;;;;;;;;;;;;;;;;;;5392134;26;19936;-63
2024/04/27 16:01:14;;;;;;;;;;;;;;;;;;5395057;26;19929;-63
2024/04/27 16:03:42;;;;;;;;;;;;;;;;;;5387665;26;20333;-63
2024/04/27 16:06:11;;;;;;;;;;;;;;;;;;5392438;26;19930;-62
2024/04/27 16:08:41;;;;;;;;;;;;;;;;;;5385805;26;20934;-63
2024/04/27 16:11:10;;;;;;;;;;;;;;;;;;5380341;26;19997;-63
2024/04/27 16:13:39;;;;;;;;;;;;;;;;;;5394543;26;20446;-63
2024/04/27 16:16:08;;;;;;;;;;;;;;;;;;5381910;26;19930;-63
2024/04/27 16:18:37;;;;;;;;;;;;;;;;;;5397541;26;19941;-63
2024/04/27 16:21:05;;;;;;;;;;;;;;;;;;5391440;26;20629;-65
2024/04/27 16:23:34;;;;;;;;;;;;;;;;;;5382456;26;19994;-65
2024/04/27 16:26:02;;;;;;;;;;;;;;;;;;5401484;26;20371;-65
2024/04/27 16:28:31;;;;;;;;;;;;;;;;;;5402304;26;19933;-64
2024/04/27 16:30:59;;;;;;;;;;;;;;;;;;5389887;26;19998;-65
2024/04/27 16:33:28;;;;;;;;;;;;;;;;;;5395959;26;20351;-65
2024/04/27 16:35:56;;;;;;;;;;;;;;;;;;5393697;26;19929;-64
2024/04/27 16:38:25;;;;;;;;;;;;;;;;;;5391634;26;19930;-65
2024/04/27 16:40:54;;;;;;;;;;;;;;;;;;5397356;26;20367;-64
2024/04/27 16:43:22;;;;;;;;;;;;;;;;;;5393909;26;19929;-65
2024/04/27 16:45:51;;;;;;;;;;;;;;;;;;5396005;26;20022;-65
2024/04/27 16:48:19;;;;;;;;;;;;;;;;;;5392859;26;20288;-64
2024/04/27 16:50:48;;;;;;;;;;;;;;;;;;5402230;26;19933;-64
2024/04/27 16:53:16;;;;;;;;;;;;;;;;;;5399980;26;19933;-65
2024/04/27 16:55:45;;;;;;;;;;;;;;;;;;5394480;26;20001;-65
2024/04/27 16:58:13;;;;;;;;;;;;;;;;;;5373606;26;19930;-64